sensor_id;sensor_type;location;lat;lon;timestamp;temperature;humidity
22738;DHT22;11536;50.860;4.286;2023-06-24T00:01:49;20.10;99.90
22738;DHT22;11536;50.860;4.286;2023-06-24T00:04:15;20.00;99.90
22738;DHT22;11536;50.860;4.286;2023-06-24T00:06:42;20.00;99.90
22738;DHT22;11536;50.860;4.286;2023-06-24T00:09:07;20.00;99.90
22738;DHT22;11536;50.860;4.286;2023-06-24T00:11:33;19.90;99.90
22738;DHT22;11536;50.860;4.286;2023-06-24T00:13:59;19.90;99.90
22738;DHT22;11536;50.860;4.286;2023-06-24T00:16:25;19.90;99.90
22738;DHT22;11536;50.860;4.286;2023-06-24T00:18:54;19.80;99.90
22738;DHT22;11536;50.860;4.286;2023-06-24T00:21:24;19.80;99.90
22738;DHT22;11536;50.860;4.286;2023-06-24T00:23:55;19.70;99.90
22738;DHT22;11536;50.860;4.286;2023-06-24T00:26:21;19.70;99.90
22738;DHT22;11536;50.860;4.286;2023-06-24T00:28:47;19.70;99.90
22738;DHT22;11536;50.860;4.286;2023-06-24T00:31:12;19.70;99.90
22738;DHT22;11536;50.860;4.286;2023-06-24T00:33:38;19.60;99.90
22738;DHT22;11536;50.860;4.286;2023-06-24T00:36:03;19.60;99.90
22738;DHT22;11536;50.860;4.286;2023-06-24T00:38:29;19.60;99.90
22738;DHT22;11536;50.860;4.286;2023-06-24T00:40:58;19.50;99.90
22738;DHT22;11536;50.860;4.286;2023-06-24T00:43:24;19.50;99.90
22738;DHT22;11536;50.860;4.286;2023-06-24T00:45:50;19.50;99.90
22738;DHT22;11536;50.860;4.286;2023-06-24T00:48:16;19.40;99.90
22738;DHT22;11536;50.860;4.286;2023-06-24T00:50:42;19.40;99.90
22738;DHT22;11536;50.860;4.286;2023-06-24T00:53:11;19.40;99.90
22738;DHT22;11536;50.860;4.286;2023-06-24T00:55:37;19.30;99.90
22738;DHT22;11536;50.860;4.286;2023-06-24T00:58:04;19.30;99.90
22738;DHT22;11536;50.860;4.286;2023-06-24T01:00:30;19.30;99.90
22738;DHT22;11536;50.860;4.286;2023-06-24T01:02:58;19.30;99.90
22738;DHT22;11536;50.860;4.286;2023-06-24T01:05:24;19.30;99.90
22738;DHT22;11536;50.860;4.286;2023-06-24T01:07:51;19.20;99.90
22738;DHT22;11536;50.860;4.286;2023-06-24T01:10:22;19.20;99.90
22738;DHT22;11536;50.860;4.286;2023-06-24T01:12:49;19.20;99.90
22738;DHT22;11536;50.860;4.286;2023-06-24T01:15:14;19.20;99.90
22738;DHT22;11536;50.860;4.286;2023-06-24T01:21:06;19.10;99.90
22738;DHT22;11536;50.860;4.286;2023-06-24T01:26:21;19.00;99.90
22738;DHT22;11536;50.860;4.286;2023-06-24T01:31:35;19.00;99.90
22738;DHT22;11536;50.860;4.286;2023-06-24T01:36:41;19.00;99.90
22738;DHT22;11536;50.860;4.286;2023-06-24T01:39:09;19.00;99.90
22738;DHT22;11536;50.860;4.286;2023-06-24T01:41:42;18.90;99.90
22738;DHT22;11536;50.860;4.286;2023-06-24T01:44:10;18.90;99.90
22738;DHT22;11536;50.860;4.286;2023-06-24T01:46:39;18.90;99.90
22738;DHT22;11536;50.860;4.286;2023-06-24T01:49:07;18.80;99.90
22738;DHT22;11536;50.860;4.286;2023-06-24T01:51:35;18.80;99.90
22738;DHT22;11536;50.860;4.286;2023-06-24T01:54:04;18.80;99.90
22738;DHT22;11536;50.860;4.286;2023-06-24T01:56:33;18.80;99.90
22738;DHT22;11536;50.860;4.286;2023-06-24T01:59:02;18.70;99.90
22738;DHT22;11536;50.860;4.286;2023-06-24T02:01:32;18.70;99.90
22738;DHT22;11536;50.860;4.286;2023-06-24T02:03:59;18.70;99.90
22738;DHT22;11536;50.860;4.286;2023-06-24T02:06:26;18.70;99.90
22738;DHT22;11536;50.860;4.286;2023-06-24T02:08:54;18.60;99.90
22738;DHT22;11536;50.860;4.286;2023-06-24T02:11:22;18.60;99.90
22738;DHT22;11536;50.860;4.286;2023-06-24T02:13:50;18.60;99.90
22738;DHT22;11536;50.860;4.286;2023-06-24T02:16:17;18.50;99.90
22738;DHT22;11536;50.860;4.286;2023-06-24T02:18:44;18.50;99.90
22738;DHT22;11536;50.860;4.286;2023-06-24T02:21:11;18.60;99.90
22738;DHT22;11536;50.860;4.286;2023-06-24T02:23:37;18.50;99.90
22738;DHT22;11536;50.860;4.286;2023-06-24T02:26:04;18.40;99.90
22738;DHT22;11536;50.860;4.286;2023-06-24T02:28:31;18.40;99.90
22738;DHT22;11536;50.860;4.286;2023-06-24T02:30:59;18.30;99.90
22738;DHT22;11536;50.860;4.286;2023-06-24T02:33:25;18.30;99.90
22738;DHT22;11536;50.860;4.286;2023-06-24T02:35:52;18.30;99.90
22738;DHT22;11536;50.860;4.286;2023-06-24T02:38:17;18.30;99.90
22738;DHT22;11536;50.860;4.286;2023-06-24T02:40:47;18.30;99.90
22738;DHT22;11536;50.860;4.286;2023-06-24T02:43:13;18.20;99.90
22738;DHT22;11536;50.860;4.286;2023-06-24T02:45:39;18.20;99.90
22738;DHT22;11536;50.860;4.286;2023-06-24T02:48:06;18.20;99.90
22738;DHT22;11536;50.860;4.286;2023-06-24T02:50:34;18.20;99.90
22738;DHT22;11536;50.860;4.286;2023-06-24T02:53:00;18.10;99.90
22738;DHT22;11536;50.860;4.286;2023-06-24T02:55:26;18.10;99.90
22738;DHT22;11536;50.860;4.286;2023-06-24T02:57:53;18.10;99.90
22738;DHT22;11536;50.860;4.286;2023-06-24T03:00:20;18.10;99.90
22738;DHT22;11536;50.860;4.286;2023-06-24T03:02:46;18.10;99.90
22738;DHT22;11536;50.860;4.286;2023-06-24T03:05:14;18.10;99.90
22738;DHT22;11536;50.860;4.286;2023-06-24T03:07:40;18.00;99.90
22738;DHT22;11536;50.860;4.286;2023-06-24T03:10:06;18.00;99.90
22738;DHT22;11536;50.860;4.286;2023-06-24T03:12:32;18.00;99.90
22738;DHT22;11536;50.860;4.286;2023-06-24T03:14:58;18.00;99.90
22738;DHT22;11536;50.860;4.286;2023-06-24T03:17:23;18.00;99.90
22738;DHT22;11536;50.860;4.286;2023-06-24T03:19:50;18.00;99.90
22738;DHT22;11536;50.860;4.286;2023-06-24T03:22:16;18.00;99.90
22738;DHT22;11536;50.860;4.286;2023-06-24T03:24:42;18.00;99.90
22738;DHT22;11536;50.860;4.286;2023-06-24T03:27:08;18.00;99.90
22738;DHT22;11536;50.860;4.286;2023-06-24T03:29:34;18.00;99.90
22738;DHT22;11536;50.860;4.286;2023-06-24T03:31:59;18.00;99.90
22738;DHT22;11536;50.860;4.286;2023-06-24T03:34:25;17.90;99.90
22738;DHT22;11536;50.860;4.286;2023-06-24T03:36:53;17.90;99.90
22738;DHT22;11536;50.860;4.286;2023-06-24T03:39:22;17.90;99.90
22738;DHT22;11536;50.860;4.286;2023-06-24T03:41:47;17.90;99.90
22738;DHT22;11536;50.860;4.286;2023-06-24T03:44:13;17.90;99.90
22738;DHT22;11536;50.860;4.286;2023-06-24T03:46:39;17.90;99.90
22738;DHT22;11536;50.860;4.286;2023-06-24T03:49:05;17.90;99.90
22738;DHT22;11536;50.860;4.286;2023-06-24T03:51:30;17.90;99.90
22738;DHT22;11536;50.860;4.286;2023-06-24T03:53:56;17.90;99.90
22738;DHT22;11536;50.860;4.286;2023-06-24T03:56:22;17.90;99.90
22738;DHT22;11536;50.860;4.286;2023-06-24T03:58:48;17.90;99.90
22738;DHT22;11536;50.860;4.286;2023-06-24T04:01:13;17.80;99.90
22738;DHT22;11536;50.860;4.286;2023-06-24T04:03:39;17.80;99.90
22738;DHT22;11536;50.860;4.286;2023-06-24T04:06:04;17.80;99.90
22738;DHT22;11536;50.860;4.286;2023-06-24T04:08:30;17.80;99.90
22738;DHT22;11536;50.860;4.286;2023-06-24T04:10:57;17.90;99.90
22738;DHT22;11536;50.860;4.286;2023-06-24T04:13:24;17.80;99.90
22738;DHT22;11536;50.860;4.286;2023-06-24T04:15:50;17.80;99.90
22738;DHT22;11536;50.860;4.286;2023-06-24T04:18:15;17.80;99.90
22738;DHT22;11536;50.860;4.286;2023-06-24T04:20:41;17.90;99.90
22738;DHT22;11536;50.860;4.286;2023-06-24T04:23:06;17.90;99.90
22738;DHT22;11536;50.860;4.286;2023-06-24T04:25:34;17.90;99.90
22738;DHT22;11536;50.860;4.286;2023-06-24T04:28:00;17.80;99.90
22738;DHT22;11536;50.860;4.286;2023-06-24T04:30:25;17.80;99.90
22738;DHT22;11536;50.860;4.286;2023-06-24T04:32:51;17.80;99.90
22738;DHT22;11536;50.860;4.286;2023-06-24T04:35:16;17.80;99.90
22738;DHT22;11536;50.860;4.286;2023-06-24T04:37:42;17.80;99.90
22738;DHT22;11536;50.860;4.286;2023-06-24T04:40:09;17.80;99.90
22738;DHT22;11536;50.860;4.286;2023-06-24T04:42:35;17.80;99.90
22738;DHT22;11536;50.860;4.286;2023-06-24T04:45:00;17.90;99.90
22738;DHT22;11536;50.860;4.286;2023-06-24T04:47:26;17.90;99.90
22738;DHT22;11536;50.860;4.286;2023-06-24T04:49:52;17.90;99.90
22738;DHT22;11536;50.860;4.286;2023-06-24T04:52:17;17.90;99.90
22738;DHT22;11536;50.860;4.286;2023-06-24T04:54:43;17.90;99.90
22738;DHT22;11536;50.860;4.286;2023-06-24T04:57:15;17.90;99.90
22738;DHT22;11536;50.860;4.286;2023-06-24T04:59:47;17.90;99.90
22738;DHT22;11536;50.860;4.286;2023-06-24T05:02:13;17.90;99.90
22738;DHT22;11536;50.860;4.286;2023-06-24T05:04:39;17.90;99.90
22738;DHT22;11536;50.860;4.286;2023-06-24T05:07:04;17.90;99.90
22738;DHT22;11536;50.860;4.286;2023-06-24T05:09:30;17.90;99.90
22738;DHT22;11536;50.860;4.286;2023-06-24T05:11:55;18.00;99.90
22738;DHT22;11536;50.860;4.286;2023-06-24T05:14:21;18.00;99.90
22738;DHT22;11536;50.860;4.286;2023-06-24T05:16:46;18.00;99.90
22738;DHT22;11536;50.860;4.286;2023-06-24T05:19:12;18.00;99.90
22738;DHT22;11536;50.860;4.286;2023-06-24T05:21:38;18.00;99.90
22738;DHT22;11536;50.860;4.286;2023-06-24T05:24:03;18.10;99.90
22738;DHT22;11536;50.860;4.286;2023-06-24T05:26:29;18.10;99.90
22738;DHT22;11536;50.860;4.286;2023-06-24T05:28:55;18.20;99.90
22738;DHT22;11536;50.860;4.286;2023-06-24T05:31:20;18.20;99.90
22738;DHT22;11536;50.860;4.286;2023-06-24T05:33:46;18.20;99.90
22738;DHT22;11536;50.860;4.286;2023-06-24T05:36:12;18.30;99.90
22738;DHT22;11536;50.860;4.286;2023-06-24T05:38:37;18.30;99.90
22738;DHT22;11536;50.860;4.286;2023-06-24T05:41:03;18.30;99.90
22738;DHT22;11536;50.860;4.286;2023-06-24T05:43:28;18.30;99.90
22738;DHT22;11536;50.860;4.286;2023-06-24T05:45:55;18.40;99.90
22738;DHT22;11536;50.860;4.286;2023-06-24T05:48:21;18.40;99.90
22738;DHT22;11536;50.860;4.286;2023-06-24T05:50:46;18.50;99.90
22738;DHT22;11536;50.860;4.286;2023-06-24T05:53:12;18.50;99.90
22738;DHT22;11536;50.860;4.286;2023-06-24T05:55:38;18.50;99.90
22738;DHT22;11536;50.860;4.286;2023-06-24T05:58:03;18.60;99.90
22738;DHT22;11536;50.860;4.286;2023-06-24T06:00:29;18.60;99.90
22738;DHT22;11536;50.860;4.286;2023-06-24T06:03:01;18.60;99.90
22738;DHT22;11536;50.860;4.286;2023-06-24T06:05:26;18.70;99.90
22738;DHT22;11536;50.860;4.286;2023-06-24T06:07:52;18.70;99.90
22738;DHT22;11536;50.860;4.286;2023-06-24T06:10:19;18.70;99.90
22738;DHT22;11536;50.860;4.286;2023-06-24T06:12:45;18.70;99.90
22738;DHT22;11536;50.860;4.286;2023-06-24T06:15:10;18.80;99.90
22738;DHT22;11536;50.860;4.286;2023-06-24T06:17:37;18.80;99.90
22738;DHT22;11536;50.860;4.286;2023-06-24T06:20:03;18.90;99.90
22738;DHT22;11536;50.860;4.286;2023-06-24T06:22:29;18.90;99.90
22738;DHT22;11536;50.860;4.286;2023-06-24T06:24:54;19.00;99.90
22738;DHT22;11536;50.860;4.286;2023-06-24T06:27:20;19.10;99.90
22738;DHT22;11536;50.860;4.286;2023-06-24T06:29:46;19.10;99.90
22738;DHT22;11536;50.860;4.286;2023-06-24T06:32:11;19.20;99.90
22738;DHT22;11536;50.860;4.286;2023-06-24T06:34:37;19.20;99.90
22738;DHT22;11536;50.860;4.286;2023-06-24T06:37:02;19.20;99.90
22738;DHT22;11536;50.860;4.286;2023-06-24T06:39:28;19.30;99.90
22738;DHT22;11536;50.860;4.286;2023-06-24T06:41:54;19.30;99.90
22738;DHT22;11536;50.860;4.286;2023-06-24T06:44:19;19.30;99.90
22738;DHT22;11536;50.860;4.286;2023-06-24T06:46:46;19.40;99.90
22738;DHT22;11536;50.860;4.286;2023-06-24T06:49:12;19.40;99.90
22738;DHT22;11536;50.860;4.286;2023-06-24T06:51:37;19.50;99.90
22738;DHT22;11536;50.860;4.286;2023-06-24T06:54:03;19.60;99.90
22738;DHT22;11536;50.860;4.286;2023-06-24T06:56:29;19.60;99.90
22738;DHT22;11536;50.860;4.286;2023-06-24T06:58:54;19.60;99.90
22738;DHT22;11536;50.860;4.286;2023-06-24T07:01:20;19.70;99.90
22738;DHT22;11536;50.860;4.286;2023-06-24T07:03:46;19.70;99.90
22738;DHT22;11536;50.860;4.286;2023-06-24T07:06:12;19.80;99.90
22738;DHT22;11536;50.860;4.286;2023-06-24T07:08:37;19.80;99.90
22738;DHT22;11536;50.860;4.286;2023-06-24T07:11:03;19.80;99.90
22738;DHT22;11536;50.860;4.286;2023-06-24T07:13:29;19.90;99.90
22738;DHT22;11536;50.860;4.286;2023-06-24T07:15:54;19.90;99.90
22738;DHT22;11536;50.860;4.286;2023-06-24T07:18:20;20.00;99.90
22738;DHT22;11536;50.860;4.286;2023-06-24T07:20:46;20.00;99.90
22738;DHT22;11536;50.860;4.286;2023-06-24T07:23:12;20.10;99.90
22738;DHT22;11536;50.860;4.286;2023-06-24T07:25:37;20.20;99.90
22738;DHT22;11536;50.860;4.286;2023-06-24T07:28:03;20.20;99.90
22738;DHT22;11536;50.860;4.286;2023-06-24T07:30:29;20.20;99.90
22738;DHT22;11536;50.860;4.286;2023-06-24T07:32:54;20.20;99.90
22738;DHT22;11536;50.860;4.286;2023-06-24T07:35:20;20.30;99.90
22738;DHT22;11536;50.860;4.286;2023-06-24T07:37:46;20.30;99.90
22738;DHT22;11536;50.860;4.286;2023-06-24T07:40:11;20.40;99.90
22738;DHT22;11536;50.860;4.286;2023-06-24T07:42:37;20.40;99.90
22738;DHT22;11536;50.860;4.286;2023-06-24T07:45:03;20.50;99.90
22738;DHT22;11536;50.860;4.286;2023-06-24T07:47:29;20.50;99.90
22738;DHT22;11536;50.860;4.286;2023-06-24T07:49:54;20.50;99.90
22738;DHT22;11536;50.860;4.286;2023-06-24T07:52:20;20.60;99.90
22738;DHT22;11536;50.860;4.286;2023-06-24T07:54:45;20.70;99.90
22738;DHT22;11536;50.860;4.286;2023-06-24T07:57:11;20.70;99.90
22738;DHT22;11536;50.860;4.286;2023-06-24T07:59:37;20.80;99.90
22738;DHT22;11536;50.860;4.286;2023-06-24T08:02:02;20.80;99.90
22738;DHT22;11536;50.860;4.286;2023-06-24T08:04:28;20.90;99.90
22738;DHT22;11536;50.860;4.286;2023-06-24T08:06:54;20.90;99.90
22738;DHT22;11536;50.860;4.286;2023-06-24T08:09:19;21.00;99.90
22738;DHT22;11536;50.860;4.286;2023-06-24T08:11:48;21.00;99.90
22738;DHT22;11536;50.860;4.286;2023-06-24T08:14:14;21.10;99.90
22738;DHT22;11536;50.860;4.286;2023-06-24T08:16:39;21.20;99.90
22738;DHT22;11536;50.860;4.286;2023-06-24T08:19:05;21.20;99.90
22738;DHT22;11536;50.860;4.286;2023-06-24T08:21:30;21.20;99.90
22738;DHT22;11536;50.860;4.286;2023-06-24T08:23:56;21.30;99.90
22738;DHT22;11536;50.860;4.286;2023-06-24T08:26:22;21.40;99.90
22738;DHT22;11536;50.860;4.286;2023-06-24T08:28:48;21.40;99.90
22738;DHT22;11536;50.860;4.286;2023-06-24T08:31:13;21.40;99.90
22738;DHT22;11536;50.860;4.286;2023-06-24T08:33:43;21.50;99.90
22738;DHT22;11536;50.860;4.286;2023-06-24T08:36:10;21.50;99.90
22738;DHT22;11536;50.860;4.286;2023-06-24T08:38:38;21.60;99.90
22738;DHT22;11536;50.860;4.286;2023-06-24T08:41:04;21.60;99.90
22738;DHT22;11536;50.860;4.286;2023-06-24T08:43:30;21.60;99.90
22738;DHT22;11536;50.860;4.286;2023-06-24T08:45:55;21.70;99.90
22738;DHT22;11536;50.860;4.286;2023-06-24T08:48:21;21.80;99.90
22738;DHT22;11536;50.860;4.286;2023-06-24T08:50:51;21.80;99.90
22738;DHT22;11536;50.860;4.286;2023-06-24T08:53:18;21.80;99.90
22738;DHT22;11536;50.860;4.286;2023-06-24T08:55:46;21.90;99.90
22738;DHT22;11536;50.860;4.286;2023-06-24T08:58:13;21.90;99.90
22738;DHT22;11536;50.860;4.286;2023-06-24T09:00:39;21.90;99.90
22738;DHT22;11536;50.860;4.286;2023-06-24T09:03:05;22.00;99.90
22738;DHT22;11536;50.860;4.286;2023-06-24T09:05:30;22.10;99.90
22738;DHT22;11536;50.860;4.286;2023-06-24T09:07:56;22.20;99.90
22738;DHT22;11536;50.860;4.286;2023-06-24T09:10:32;22.20;99.90
22738;DHT22;11536;50.860;4.286;2023-06-24T09:13:02;22.30;99.90
22738;DHT22;11536;50.860;4.286;2023-06-24T09:15:36;22.40;99.90
22738;DHT22;11536;50.860;4.286;2023-06-24T09:18:03;22.40;99.90
22738;DHT22;11536;50.860;4.286;2023-06-24T09:20:29;22.50;99.90
22738;DHT22;11536;50.860;4.286;2023-06-24T09:23:03;22.50;99.90
22738;DHT22;11536;50.860;4.286;2023-06-24T09:25:29;22.60;99.90
22738;DHT22;11536;50.860;4.286;2023-06-24T09:27:59;22.70;99.90
22738;DHT22;11536;50.860;4.286;2023-06-24T09:30:25;22.70;99.90
22738;DHT22;11536;50.860;4.286;2023-06-24T09:32:52;22.80;99.90
22738;DHT22;11536;50.860;4.286;2023-06-24T09:35:22;22.80;99.90
22738;DHT22;11536;50.860;4.286;2023-06-24T09:37:53;22.80;99.90
22738;DHT22;11536;50.860;4.286;2023-06-24T09:40:25;22.80;99.90
22738;DHT22;11536;50.860;4.286;2023-06-24T09:42:58;22.90;99.90
22738;DHT22;11536;50.860;4.286;2023-06-24T09:45:41;22.90;99.90
22738;DHT22;11536;50.860;4.286;2023-06-24T09:48:22;23.00;99.90
22738;DHT22;11536;50.860;4.286;2023-06-24T09:53:52;23.10;99.90
22738;DHT22;11536;50.860;4.286;2023-06-24T09:56:20;23.10;99.90
22738;DHT22;11536;50.860;4.286;2023-06-24T09:58:46;23.20;99.90
22738;DHT22;11536;50.860;4.286;2023-06-24T10:01:16;23.30;99.90
22738;DHT22;11536;50.860;4.286;2023-06-24T10:03:42;23.30;99.90
22738;DHT22;11536;50.860;4.286;2023-06-24T10:06:09;23.40;99.90
22738;DHT22;11536;50.860;4.286;2023-06-24T10:08:35;23.40;99.90
22738;DHT22;11536;50.860;4.286;2023-06-24T10:11:01;23.40;99.90
22738;DHT22;11536;50.860;4.286;2023-06-24T10:13:27;23.40;99.90
22738;DHT22;11536;50.860;4.286;2023-06-24T10:15:56;23.40;99.90
22738;DHT22;11536;50.860;4.286;2023-06-24T10:18:36;23.30;99.90
22738;DHT22;11536;50.860;4.286;2023-06-24T10:21:07;23.40;99.90
22738;DHT22;11536;50.860;4.286;2023-06-24T10:23:41;23.50;99.90
22738;DHT22;11536;50.860;4.286;2023-06-24T10:26:21;23.50;99.90
22738;DHT22;11536;50.860;4.286;2023-06-24T10:37:02;23.70;99.90
22738;DHT22;11536;50.860;4.286;2023-06-24T10:39:50;23.70;99.90
22738;DHT22;11536;50.860;4.286;2023-06-24T10:42:42;23.80;99.90
22738;DHT22;11536;50.860;4.286;2023-06-24T10:47:38;23.90;99.90
22738;DHT22;11536;50.860;4.286;2023-06-24T10:50:09;23.90;99.90
22738;DHT22;11536;50.860;4.286;2023-06-24T10:52:40;24.00;99.90
22738;DHT22;11536;50.860;4.286;2023-06-24T10:55:06;24.00;99.90
22738;DHT22;11536;50.860;4.286;2023-06-24T10:57:35;24.10;99.90
22738;DHT22;11536;50.860;4.286;2023-06-24T11:00:02;24.10;99.90
22738;DHT22;11536;50.860;4.286;2023-06-24T11:02:29;24.20;99.90
22738;DHT22;11536;50.860;4.286;2023-06-24T11:05:00;24.20;99.90
22738;DHT22;11536;50.860;4.286;2023-06-24T11:07:29;24.20;99.90
22738;DHT22;11536;50.860;4.286;2023-06-24T11:09:58;24.20;99.90
22738;DHT22;11536;50.860;4.286;2023-06-24T11:12:25;24.20;99.90
22738;DHT22;11536;50.860;4.286;2023-06-24T11:15:02;24.20;99.90
22738;DHT22;11536;50.860;4.286;2023-06-24T11:17:29;24.30;99.90
22738;DHT22;11536;50.860;4.286;2023-06-24T11:19:56;24.30;99.90
22738;DHT22;11536;50.860;4.286;2023-06-24T11:22:23;24.40;99.90
22738;DHT22;11536;50.860;4.286;2023-06-24T11:24:49;24.40;99.90
22738;DHT22;11536;50.860;4.286;2023-06-24T11:27:15;24.50;99.90
22738;DHT22;11536;50.860;4.286;2023-06-24T11:29:48;24.60;99.90
22738;DHT22;11536;50.860;4.286;2023-06-24T11:32:18;24.60;99.90
22738;DHT22;11536;50.860;4.286;2023-06-24T11:34:44;24.60;99.90
22738;DHT22;11536;50.860;4.286;2023-06-24T11:37:14;24.60;99.90
22738;DHT22;11536;50.860;4.286;2023-06-24T11:39:40;24.60;99.90
22738;DHT22;11536;50.860;4.286;2023-06-24T11:42:09;24.70;99.90
22738;DHT22;11536;50.860;4.286;2023-06-24T11:44:40;24.70;99.90
22738;DHT22;11536;50.860;4.286;2023-06-24T11:47:07;24.80;99.90
22738;DHT22;11536;50.860;4.286;2023-06-24T11:49:51;24.90;99.90
22738;DHT22;11536;50.860;4.286;2023-06-24T11:52:17;25.00;99.90
22738;DHT22;11536;50.860;4.286;2023-06-24T11:54:43;25.00;99.90
22738;DHT22;11536;50.860;4.286;2023-06-24T11:57:09;25.10;99.90
22738;DHT22;11536;50.860;4.286;2023-06-24T11:59:35;25.10;99.90
22738;DHT22;11536;50.860;4.286;2023-06-24T12:02:01;25.20;99.90
22738;DHT22;11536;50.860;4.286;2023-06-24T12:04:33;25.30;99.90
22738;DHT22;11536;50.860;4.286;2023-06-24T12:07:00;25.30;99.90
22738;DHT22;11536;50.860;4.286;2023-06-24T12:09:26;25.30;99.90
22738;DHT22;11536;50.860;4.286;2023-06-24T12:11:52;25.40;99.90
22738;DHT22;11536;50.860;4.286;2023-06-24T12:14:18;25.60;99.90
22738;DHT22;11536;50.860;4.286;2023-06-24T12:16:44;25.70;99.90
22738;DHT22;11536;50.860;4.286;2023-06-24T12:19:09;25.70;99.90
22738;DHT22;11536;50.860;4.286;2023-06-24T12:21:35;25.90;99.90
22738;DHT22;11536;50.860;4.286;2023-06-24T12:24:05;26.00;99.90
22738;DHT22;11536;50.860;4.286;2023-06-24T12:26:31;26.00;99.90
22738;DHT22;11536;50.860;4.286;2023-06-24T12:28:57;26.10;99.90
22738;DHT22;11536;50.860;4.286;2023-06-24T12:34:04;26.20;99.90
22738;DHT22;11536;50.860;4.286;2023-06-24T12:36:33;26.30;99.90
22738;DHT22;11536;50.860;4.286;2023-06-24T12:38:59;26.30;99.90
22738;DHT22;11536;50.860;4.286;2023-06-24T12:41:24;26.40;99.90
22738;DHT22;11536;50.860;4.286;2023-06-24T12:43:52;26.40;99.90
22738;DHT22;11536;50.860;4.286;2023-06-24T12:46:17;26.50;99.90
22738;DHT22;11536;50.860;4.286;2023-06-24T12:48:44;26.60;99.90
22738;DHT22;11536;50.860;4.286;2023-06-24T12:51:09;26.70;99.90
22738;DHT22;11536;50.860;4.286;2023-06-24T12:53:35;26.70;99.90
22738;DHT22;11536;50.860;4.286;2023-06-24T12:56:00;26.80;99.90
22738;DHT22;11536;50.860;4.286;2023-06-24T12:58:26;26.80;99.90
22738;DHT22;11536;50.860;4.286;2023-06-24T13:00:52;26.80;99.90
22738;DHT22;11536;50.860;4.286;2023-06-24T13:03:18;26.70;99.90
22738;DHT22;11536;50.860;4.286;2023-06-24T13:05:44;26.70;99.90
22738;DHT22;11536;50.860;4.286;2023-06-24T13:08:09;26.80;99.90
22738;DHT22;11536;50.860;4.286;2023-06-24T13:10:36;26.80;99.90
22738;DHT22;11536;50.860;4.286;2023-06-24T13:13:03;26.70;99.90
22738;DHT22;11536;50.860;4.286;2023-06-24T13:15:29;26.80;99.90
22738;DHT22;11536;50.860;4.286;2023-06-24T13:17:55;26.90;99.90
22738;DHT22;11536;50.860;4.286;2023-06-24T13:20:20;27.00;99.90
22738;DHT22;11536;50.860;4.286;2023-06-24T13:22:51;27.10;99.90
22738;DHT22;11536;50.860;4.286;2023-06-24T13:25:17;27.20;99.90
22738;DHT22;11536;50.860;4.286;2023-06-24T13:27:43;27.30;99.90
22738;DHT22;11536;50.860;4.286;2023-06-24T13:30:13;27.30;99.90
22738;DHT22;11536;50.860;4.286;2023-06-24T13:32:44;27.40;99.90
22738;DHT22;11536;50.860;4.286;2023-06-24T13:35:13;27.40;99.90
22738;DHT22;11536;50.860;4.286;2023-06-24T13:37:38;27.50;99.90
22738;DHT22;11536;50.860;4.286;2023-06-24T13:40:05;27.50;99.90
22738;DHT22;11536;50.860;4.286;2023-06-24T13:42:31;27.60;99.90
22738;DHT22;11536;50.860;4.286;2023-06-24T13:44:57;27.60;99.90
22738;DHT22;11536;50.860;4.286;2023-06-24T13:47:23;27.60;99.90
22738;DHT22;11536;50.860;4.286;2023-06-24T13:49:48;27.60;99.90
22738;DHT22;11536;50.860;4.286;2023-06-24T13:52:14;27.50;99.90
22738;DHT22;11536;50.860;4.286;2023-06-24T13:54:39;27.50;99.90
22738;DHT22;11536;50.860;4.286;2023-06-24T13:57:05;27.50;99.90
22738;DHT22;11536;50.860;4.286;2023-06-24T13:59:31;27.60;99.90
22738;DHT22;11536;50.860;4.286;2023-06-24T14:01:57;27.70;99.90
22738;DHT22;11536;50.860;4.286;2023-06-24T14:04:22;27.70;99.90
22738;DHT22;11536;50.860;4.286;2023-06-24T14:06:48;27.70;99.90
22738;DHT22;11536;50.860;4.286;2023-06-24T14:09:13;27.70;99.90
22738;DHT22;11536;50.860;4.286;2023-06-24T14:11:40;27.70;99.90
22738;DHT22;11536;50.860;4.286;2023-06-24T14:14:05;27.70;99.90
22738;DHT22;11536;50.860;4.286;2023-06-24T14:16:31;27.70;99.90
22738;DHT22;11536;50.860;4.286;2023-06-24T14:18:57;27.70;99.90
22738;DHT22;11536;50.860;4.286;2023-06-24T14:21:22;27.60;99.90
22738;DHT22;11536;50.860;4.286;2023-06-24T14:23:48;27.60;99.90
22738;DHT22;11536;50.860;4.286;2023-06-24T14:26:15;27.50;99.90
22738;DHT22;11536;50.860;4.286;2023-06-24T14:28:41;27.50;99.90
22738;DHT22;11536;50.860;4.286;2023-06-24T14:31:06;27.40;99.90
22738;DHT22;11536;50.860;4.286;2023-06-24T14:33:32;27.50;99.90
22738;DHT22;11536;50.860;4.286;2023-06-24T14:35:57;27.40;99.90
22738;DHT22;11536;50.860;4.286;2023-06-24T14:38:23;27.40;99.90
22738;DHT22;11536;50.860;4.286;2023-06-24T14:40:48;27.40;99.90
22738;DHT22;11536;50.860;4.286;2023-06-24T14:43:14;27.40;99.90
22738;DHT22;11536;50.860;4.286;2023-06-24T14:45:40;27.40;99.90
22738;DHT22;11536;50.860;4.286;2023-06-24T14:48:05;27.40;99.90
22738;DHT22;11536;50.860;4.286;2023-06-24T14:50:31;27.40;99.90
22738;DHT22;11536;50.860;4.286;2023-06-24T14:52:57;27.40;99.90
22738;DHT22;11536;50.860;4.286;2023-06-24T14:55:22;27.40;99.80
22738;DHT22;11536;50.860;4.286;2023-06-24T14:57:48;27.40;99.90
22738;DHT22;11536;50.860;4.286;2023-06-24T15:00:14;27.40;99.90
22738;DHT22;11536;50.860;4.286;2023-06-24T15:02:40;27.40;99.70
22738;DHT22;11536;50.860;4.286;2023-06-24T15:05:06;27.30;99.70
22738;DHT22;11536;50.860;4.286;2023-06-24T15:07:31;27.40;99.50
22738;DHT22;11536;50.860;4.286;2023-06-24T15:09:57;27.30;99.00
22738;DHT22;11536;50.860;4.286;2023-06-24T15:12:23;27.20;99.40
22738;DHT22;11536;50.860;4.286;2023-06-24T15:14:48;27.20;99.50
22738;DHT22;11536;50.860;4.286;2023-06-24T15:17:14;27.20;99.30
22738;DHT22;11536;50.860;4.286;2023-06-24T15:19:40;27.20;98.90
22738;DHT22;11536;50.860;4.286;2023-06-24T15:22:06;27.20;99.20
22738;DHT22;11536;50.860;4.286;2023-06-24T15:24:31;27.20;99.10
22738;DHT22;11536;50.860;4.286;2023-06-24T15:26:58;27.20;99.20
22738;DHT22;11536;50.860;4.286;2023-06-24T15:29:24;27.20;98.30
22738;DHT22;11536;50.860;4.286;2023-06-24T15:31:49;27.10;98.10
22738;DHT22;11536;50.860;4.286;2023-06-24T15:34:15;27.00;98.40
22738;DHT22;11536;50.860;4.286;2023-06-24T15:36:41;27.00;98.70
22738;DHT22;11536;50.860;4.286;2023-06-24T15:39:06;27.00;98.70
22738;DHT22;11536;50.860;4.286;2023-06-24T15:41:32;27.00;98.50
22738;DHT22;11536;50.860;4.286;2023-06-24T15:43:57;26.90;98.70
22738;DHT22;11536;50.860;4.286;2023-06-24T15:46:23;26.90;98.70
22738;DHT22;11536;50.860;4.286;2023-06-24T15:48:48;27.00;98.60
22738;DHT22;11536;50.860;4.286;2023-06-24T15:51:15;27.00;98.80
22738;DHT22;11536;50.860;4.286;2023-06-24T15:53:40;26.90;98.60
22738;DHT22;11536;50.860;4.286;2023-06-24T15:56:06;26.90;98.50